Skip Navigation Links
NOAA logo - Click to go to the NOAA homepage
NOAA's National Weather Service
Alaska Aviation Weather Unit
  NWS logo - Click to go to the NWS homepage
Left Navbar Graphic     02 AKDT = 10 GMT

   
NOAA is celebrating 200 years of science, service, and stewardship. Visit the NOAA 200th celebration Web site to learn more.
USA.gov is the U.S. Government's official Web portal to all Federal, state and local government Web resources and services.
Facebook
NWS on Facebook

AAWU Home :: Display TAF Add Bookmark
METAR PANI 270416Z AUTO 01006KT 10SM CLR M07/M14 A2974 RMK AO1=

METAR PANI 270436Z AUTO 01007KT 10SM CLR M07/M14 A2974 RMK AO1=

METAR PANI 270456Z AUTO 01007KT 10SM CLR M07/M15 A2975 RMK AO1=

METAR PANI 270516Z AUTO 36006KT 10SM CLR M07/M15 A2974 RMK AO1=

METAR PANI 270536Z AUTO 01006KT 10SM CLR M08/M16 A2974 RMK AO1=

METAR PANI 270556Z AUTO 35006KT 10SM CLR M08/M16 A2974 RMK AO1 11060
     21080 57003=

METAR PANI 270616Z AUTO 35003KT 10SM CLR M08/M16 A2974 RMK AO1=

METAR PANI 270636Z AUTO 01005KT 10SM CLR M08/M16 A2974 RMK AO1=

METAR PANI 270656Z AUTO 01007KT 10SM CLR M08/M16 A2973 RMK AO1=

METAR PANI 270716Z AUTO 01006KT 10SM CLR M08/M16 A2973 RMK AO1=

METAR PANI 270736Z AUTO 01006KT 10SM CLR M08/M17 A2973 RMK AO1=

METAR PANI 270756Z AUTO 02008KT 360V060 10SM CLR M08/M17 A2973 RMK
     AO1=

METAR PANI 270816Z AUTO 01006KT 10SM CLR M08/M17 A2973 RMK AO1=

METAR PANI 270836Z AUTO 01006KT 10SM CLR M09/M17 A2972 RMK AO1=

METAR PANI 270856Z AUTO 01005KT 10SM CLR M09/M17 A2972 RMK AO1 57007=

METAR PANI 270916Z AUTO 34005KT 10SM CLR M09/M17 A2972 RMK AO1=

METAR PANI 270936Z AUTO 35006KT 10SM CLR M09/M17 A2971 RMK AO1=

METAR PANI 270956Z AUTO 34004KT 10SM CLR M09/M17 A2971 RMK AO1=

METAR PANI 271016Z AUTO 00000KT 10SM CLR M10/M17 A2971 RMK AO1=

METAR PANI 271036Z AUTO 00000KT 10SM CLR M10/M17 A2971 RMK AO1=


NOAA's National Weather Service
Alaska Aviation Weather Unit
6930 Sand Lake Road
Anchorage, AK 99502-1845
Disclaimer
Credits
Glossary
Privacy Policy
About Us
Career Opportunities
Contact AAWU Internet Services Site last modified: April, 17th 2012